sensor_id;sensor_type;location;lat;lon;timestamp;P1;durP1;ratioP1;P2;durP2;ratioP2
51594;SDS011;37677;53.254;6.594;2022-10-31T08:48:43;16.13;;;14.43;;
51594;SDS011;37677;53.254;6.594;2022-10-31T08:51:09;13.82;;;12.43;;
51594;SDS011;37677;53.254;6.594;2022-10-31T08:53:36;13.52;;;11.77;;
51594;SDS011;37677;53.254;6.594;2022-10-31T08:56:01;15.85;;;12.43;;
51594;SDS011;37677;53.254;6.594;2022-10-31T08:58:27;12.77;;;11.57;;
51594;SDS011;37677;53.254;6.594;2022-10-31T09:00:53;13.18;;;10.90;;
51594;SDS011;37677;53.254;6.594;2022-10-31T09:03:25;13.65;;;12.23;;
51594;SDS011;37677;53.254;6.594;2022-10-31T09:05:56;17.30;;;11.70;;
51594;SDS011;37677;53.254;6.594;2022-10-31T09:08:23;12.38;;;11.02;;
51594;SDS011;37677;53.254;6.594;2022-10-31T09:10:49;11.90;;;10.70;;
51594;SDS011;37677;53.254;6.594;2022-10-31T09:13:16;12.25;;;10.27;;
51594;SDS011;37677;53.254;6.594;2022-10-31T09:15:44;14.23;;;10.65;;
51594;SDS011;37677;53.254;6.594;2022-10-31T09:18:12;11.27;;;10.05;;
51594;SDS011;37677;53.254;6.594;2022-10-31T09:20:41;12.65;;;9.82;;
51594;SDS011;37677;53.254;6.594;2022-10-31T09:23:21;11.25;;;9.50;;
51594;SDS011;37677;53.254;6.594;2022-10-31T09:25:49;12.15;;;9.73;;
51594;SDS011;37677;53.254;6.594;2022-10-31T09:28:16;14.23;;;10.45;;
51594;SDS011;37677;53.254;6.594;2022-10-31T09:30:48;12.82;;;9.32;;
51594;SDS011;37677;53.254;6.594;2022-10-31T09:33:15;10.20;;;9.13;;
51594;SDS011;37677;53.254;6.594;2022-10-31T09:35:41;10.57;;;9.48;;
51594;SDS011;37677;53.254;6.594;2022-10-31T09:38:11;9.93;;;8.95;;
51594;SDS011;37677;53.254;6.594;2022-10-31T09:43:39;10.25;;;9.20;;
51594;SDS011;37677;53.254;6.594;2022-10-31T09:48:56;10.30;;;8.65;;
51594;SDS011;37677;53.254;6.594;2022-10-31T09:51:39;9.45;;;8.60;;
51594;SDS011;37677;53.254;6.594;2022-10-31T09:57:16;10.52;;;7.75;;
51594;SDS011;37677;53.254;6.594;2022-10-31T09:59:47;9.52;;;8.48;;
51594;SDS011;37677;53.254;6.594;2022-10-31T10:02:23;22.10;;;8.38;;
51594;SDS011;37677;53.254;6.594;2022-10-31T10:05:02;12.10;;;7.93;;
51594;SDS011;37677;53.254;6.594;2022-10-31T10:10:35;10.93;;;7.82;;
51594;SDS011;37677;53.254;6.594;2022-10-31T10:16:26;8.70;;;7.50;;
51594;SDS011;37677;53.254;6.594;2022-10-31T10:19:34;11.20;;;8.25;;
51594;SDS011;37677;53.254;6.594;2022-10-31T10:27:58;8.85;;;7.57;;
51594;SDS011;37677;53.254;6.594;2022-10-31T10:31:03;11.27;;;7.55;;
51594;SDS011;37677;53.254;6.594;2022-10-31T10:33:35;9.68;;;7.95;;
51594;SDS011;37677;53.254;6.594;2022-10-31T10:36:05;13.25;;;7.95;;
51594;SDS011;37677;53.254;6.594;2022-10-31T10:41:16;10.98;;;7.20;;
51594;SDS011;37677;53.254;6.594;2022-10-31T10:43:44;13.02;;;8.32;;
51594;SDS011;37677;53.254;6.594;2022-10-31T10:54:41;10.65;;;6.90;;
51594;SDS011;37677;53.254;6.594;2022-10-31T10:57:27;8.70;;;7.23;;
51594;SDS011;37677;53.254;6.594;2022-10-31T11:00:16;10.23;;;6.63;;
51594;SDS011;37677;53.254;6.594;2022-10-31T11:02:44;10.98;;;6.50;;
51594;SDS011;37677;53.254;6.594;2022-10-31T11:05:13;10.75;;;7.28;;
51594;SDS011;37677;53.254;6.594;2022-10-31T11:07:49;10.05;;;6.75;;
51594;SDS011;37677;53.254;6.594;2022-10-31T11:10:15;10.38;;;7.03;;
51594;SDS011;37677;53.254;6.594;2022-10-31T11:12:42;8.23;;;7.13;;
51594;SDS011;37677;53.254;6.594;2022-10-31T11:15:18;10.20;;;6.72;;
51594;SDS011;37677;53.254;6.594;2022-10-31T11:17:49;8.55;;;7.30;;
51594;SDS011;37677;53.254;6.594;2022-10-31T11:22:43;9.10;;;7.43;;
51594;SDS011;37677;53.254;6.594;2022-10-31T11:27:44;10.75;;;7.38;;
51594;SDS011;37677;53.254;6.594;2022-10-31T11:30:12;11.27;;;7.32;;
51594;SDS011;37677;53.254;6.594;2022-10-31T11:32:49;10.98;;;7.30;;
51594;SDS011;37677;53.254;6.594;2022-10-31T11:35:19;9.30;;;7.00;;
51594;SDS011;37677;53.254;6.594;2022-10-31T11:37:46;12.68;;;6.75;;
51594;SDS011;37677;53.254;6.594;2022-10-31T11:40:19;10.65;;;7.72;;
51594;SDS011;37677;53.254;6.594;2022-10-31T11:42:46;12.77;;;8.27;;
51594;SDS011;37677;53.254;6.594;2022-10-31T11:45:14;14.50;;;8.80;;
51594;SDS011;37677;53.254;6.594;2022-10-31T11:47:52;10.70;;;8.80;;
51594;SDS011;37677;53.254;6.594;2022-10-31T11:50:25;11.48;;;9.68;;
51594;SDS011;37677;53.254;6.594;2022-10-31T11:53:02;12.30;;;9.27;;
51594;SDS011;37677;53.254;6.594;2022-10-31T11:55:35;10.77;;;8.50;;
51594;SDS011;37677;53.254;6.594;2022-10-31T11:58:02;12.30;;;8.73;;
51594;SDS011;37677;53.254;6.594;2022-10-31T12:01:20;10.75;;;8.32;;
51594;SDS011;37677;53.254;6.594;2022-10-31T12:05:49;9.38;;;7.47;;
51594;SDS011;37677;53.254;6.594;2022-10-31T12:08:21;11.32;;;7.80;;
51594;SDS011;37677;53.254;6.594;2022-10-31T12:16:08;10.57;;;7.13;;
51594;SDS011;37677;53.254;6.594;2022-10-31T12:18:49;10.63;;;6.88;;
51594;SDS011;37677;53.254;6.594;2022-10-31T12:21:32;9.57;;;6.60;;
51594;SDS011;37677;53.254;6.594;2022-10-31T12:24:38;11.60;;;6.72;;
51594;SDS011;37677;53.254;6.594;2022-10-31T12:27:13;11.40;;;6.32;;
51594;SDS011;37677;53.254;6.594;2022-10-31T12:29:45;11.10;;;6.65;;
51594;SDS011;37677;53.254;6.594;2022-10-31T12:38:03;10.98;;;6.65;;
51594;SDS011;37677;53.254;6.594;2022-10-31T12:51:49;10.07;;;6.07;;
51594;SDS011;37677;53.254;6.594;2022-10-31T12:57:18;9.75;;;6.28;;
51594;SDS011;37677;53.254;6.594;2022-10-31T13:00:14;11.43;;;6.30;;
51594;SDS011;37677;53.254;6.594;2022-10-31T13:07:54;11.50;;;7.00;;
51594;SDS011;37677;53.254;6.594;2022-10-31T13:13:18;15.95;;;7.65;;
51594;SDS011;37677;53.254;6.594;2022-10-31T13:15:47;18.23;;;7.18;;
51594;SDS011;37677;53.254;6.594;2022-10-31T13:18:27;10.85;;;6.40;;
51594;SDS011;37677;53.254;6.594;2022-10-31T13:21:01;12.93;;;5.60;;
51594;SDS011;37677;53.254;6.594;2022-10-31T13:23:33;12.15;;;5.57;;
51594;SDS011;37677;53.254;6.594;2022-10-31T13:26:02;11.82;;;5.25;;
51594;SDS011;37677;53.254;6.594;2022-10-31T13:28:47;12.73;;;5.25;;
51594;SDS011;37677;53.254;6.594;2022-10-31T13:31:33;11.67;;;5.70;;
51594;SDS011;37677;53.254;6.594;2022-10-31T13:34:00;11.20;;;5.40;;
51594;SDS011;37677;53.254;6.594;2022-10-31T13:36:38;12.45;;;5.55;;
51594;SDS011;37677;53.254;6.594;2022-10-31T13:44:29;14.25;;;5.25;;
51594;SDS011;37677;53.254;6.594;2022-10-31T13:46:56;14.88;;;5.90;;
51594;SDS011;37677;53.254;6.594;2022-10-31T13:54:44;15.93;;;5.55;;
51594;SDS011;37677;53.254;6.594;2022-10-31T13:57:33;14.65;;;6.00;;
51594;SDS011;37677;53.254;6.594;2022-10-31T14:00:24;14.52;;;5.43;;
51594;SDS011;37677;53.254;6.594;2022-10-31T14:02:52;16.05;;;6.03;;
51594;SDS011;37677;53.254;6.594;2022-10-31T14:05:25;13.43;;;5.35;;
51594;SDS011;37677;53.254;6.594;2022-10-31T14:07:55;14.52;;;6.13;;
51594;SDS011;37677;53.254;6.594;2022-10-31T14:13:07;15.38;;;5.57;;
51594;SDS011;37677;53.254;6.594;2022-10-31T14:15:53;14.57;;;5.78;;
51594;SDS011;37677;53.254;6.594;2022-10-31T14:18:23;18.25;;;6.55;;
51594;SDS011;37677;53.254;6.594;2022-10-31T14:20:53;13.27;;;6.38;;
51594;SDS011;37677;53.254;6.594;2022-10-31T14:23:31;14.10;;;7.07;;
51594;SDS011;37677;53.254;6.594;2022-10-31T14:28:47;13.38;;;6.15;;
51594;SDS011;37677;53.254;6.594;2022-10-31T14:34:00;12.38;;;6.20;;
51594;SDS011;37677;53.254;6.594;2022-10-31T14:37:11;10.98;;;6.03;;
51594;SDS011;37677;53.254;6.594;2022-10-31T14:45:12;14.10;;;6.32;;
51594;SDS011;37677;53.254;6.594;2022-10-31T14:47:46;12.43;;;6.18;;
51594;SDS011;37677;53.254;6.594;2022-10-31T14:50:31;16.00;;;6.22;;
51594;SDS011;37677;53.254;6.594;2022-10-31T14:53:00;12.05;;;5.35;;
51594;SDS011;37677;53.254;6.594;2022-10-31T14:55:28;10.82;;;5.88;;
51594;SDS011;37677;53.254;6.594;2022-10-31T14:57:57;14.60;;;6.32;;
51594;SDS011;37677;53.254;6.594;2022-10-31T15:00:28;15.93;;;6.38;;
51594;SDS011;37677;53.254;6.594;2022-10-31T15:10:56;13.85;;;6.82;;
51594;SDS011;37677;53.254;6.594;2022-10-31T15:13:22;11.88;;;6.32;;
51594;SDS011;37677;53.254;6.594;2022-10-31T15:15:49;20.23;;;6.65;;
51594;SDS011;37677;53.254;6.594;2022-10-31T15:18:23;24.90;;;6.63;;
51594;SDS011;37677;53.254;6.594;2022-10-31T15:20:51;11.98;;;7.97;;
51594;SDS011;37677;53.254;6.594;2022-10-31T15:23:25;12.93;;;8.35;;
51594;SDS011;37677;53.254;6.594;2022-10-31T15:25:59;14.65;;;8.52;;
51594;SDS011;37677;53.254;6.594;2022-10-31T15:28:26;14.80;;;8.55;;
51594;SDS011;37677;53.254;6.594;2022-10-31T15:30:54;18.00;;;8.05;;
51594;SDS011;37677;53.254;6.594;2022-10-31T15:33:31;15.32;;;9.20;;
51594;SDS011;37677;53.254;6.594;2022-10-31T15:36:04;16.85;;;8.57;;
51594;SDS011;37677;53.254;6.594;2022-10-31T15:38:31;18.73;;;9.45;;
51594;SDS011;37677;53.254;6.594;2022-10-31T15:41:04;16.60;;;9.15;;
51594;SDS011;37677;53.254;6.594;2022-10-31T15:46:10;14.85;;;9.45;;
51594;SDS011;37677;53.254;6.594;2022-10-31T15:48:35;19.20;;;10.00;;
51594;SDS011;37677;53.254;6.594;2022-10-31T15:51:03;16.80;;;9.68;;
51594;SDS011;37677;53.254;6.594;2022-10-31T15:56:29;15.75;;;9.25;;
51594;SDS011;37677;53.254;6.594;2022-10-31T15:58:57;12.88;;;10.20;;
51594;SDS011;37677;53.254;6.594;2022-10-31T16:01:31;18.48;;;10.68;;
51594;SDS011;37677;53.254;6.594;2022-10-31T16:06:37;18.42;;;10.93;;
51594;SDS011;37677;53.254;6.594;2022-10-31T16:09:03;18.05;;;10.73;;
51594;SDS011;37677;53.254;6.594;2022-10-31T16:11:44;15.25;;;10.73;;
51594;SDS011;37677;53.254;6.594;2022-10-31T16:14:20;18.27;;;11.40;;
51594;SDS011;37677;53.254;6.594;2022-10-31T16:16:50;18.25;;;11.23;;
51594;SDS011;37677;53.254;6.594;2022-10-31T16:19:20;17.02;;;11.38;;
51594;SDS011;37677;53.254;6.594;2022-10-31T16:21:54;14.88;;;10.50;;
51594;SDS011;37677;53.254;6.594;2022-10-31T16:24:29;17.90;;;11.63;;
51594;SDS011;37677;53.254;6.594;2022-10-31T16:27:17;17.85;;;10.70;;
51594;SDS011;37677;53.254;6.594;2022-10-31T16:29:48;18.63;;;10.82;;
51594;SDS011;37677;53.254;6.594;2022-10-31T16:34:58;17.80;;;11.30;;
51594;SDS011;37677;53.254;6.594;2022-10-31T16:37:36;18.00;;;10.60;;
51594;SDS011;37677;53.254;6.594;2022-10-31T16:40:02;16.20;;;10.13;;
51594;SDS011;37677;53.254;6.594;2022-10-31T16:42:28;18.70;;;9.02;;
51594;SDS011;37677;53.254;6.594;2022-10-31T16:44:54;15.25;;;8.93;;
51594;SDS011;37677;53.254;6.594;2022-10-31T16:47:20;11.57;;;8.82;;
51594;SDS011;37677;53.254;6.594;2022-10-31T16:49:46;17.38;;;9.88;;
51594;SDS011;37677;53.254;6.594;2022-10-31T16:52:14;14.35;;;8.55;;
51594;SDS011;37677;53.254;6.594;2022-10-31T16:54:40;12.43;;;7.90;;
51594;SDS011;37677;53.254;6.594;2022-10-31T16:57:06;12.15;;;8.30;;
51594;SDS011;37677;53.254;6.594;2022-10-31T16:59:42;14.07;;;9.20;;
51594;SDS011;37677;53.254;6.594;2022-10-31T17:02:14;13.25;;;9.23;;
51594;SDS011;37677;53.254;6.594;2022-10-31T17:04:41;15.82;;;10.43;;
51594;SDS011;37677;53.254;6.594;2022-10-31T17:07:07;12.63;;;9.50;;
51594;SDS011;37677;53.254;6.594;2022-10-31T17:09:33;20.27;;;11.13;;
51594;SDS011;37677;53.254;6.594;2022-10-31T17:11:59;14.82;;;10.93;;
51594;SDS011;37677;53.254;6.594;2022-10-31T17:14:24;16.17;;;11.15;;
51594;SDS011;37677;53.254;6.594;2022-10-31T17:16:50;17.88;;;11.27;;
51594;SDS011;37677;53.254;6.594;2022-10-31T17:19:16;15.05;;;10.90;;
51594;SDS011;37677;53.254;6.594;2022-10-31T17:21:42;16.15;;;11.30;;
51594;SDS011;37677;53.254;6.594;2022-10-31T17:24:09;13.55;;;12.15;;
51594;SDS011;37677;53.254;6.594;2022-10-31T17:26:37;20.30;;;12.75;;
51594;SDS011;37677;53.254;6.594;2022-10-31T17:29:03;17.10;;;12.30;;
51594;SDS011;37677;53.254;6.594;2022-10-31T17:31:30;18.73;;;13.15;;
51594;SDS011;37677;53.254;6.594;2022-10-31T17:33:58;17.77;;;13.98;;
51594;SDS011;37677;53.254;6.594;2022-10-31T17:36:24;17.02;;;14.18;;
51594;SDS011;37677;53.254;6.594;2022-10-31T17:38:50;20.40;;;14.95;;
51594;SDS011;37677;53.254;6.594;2022-10-31T17:41:16;21.50;;;15.27;;
51594;SDS011;37677;53.254;6.594;2022-10-31T17:43:42;22.75;;;16.00;;
51594;SDS011;37677;53.254;6.594;2022-10-31T17:46:08;23.52;;;15.55;;
51594;SDS011;37677;53.254;6.594;2022-10-31T17:48:34;22.10;;;16.40;;
51594;SDS011;37677;53.254;6.594;2022-10-31T17:51:02;27.90;;;17.63;;
51594;SDS011;37677;53.254;6.594;2022-10-31T17:53:29;23.15;;;17.67;;
51594;SDS011;37677;53.254;6.594;2022-10-31T17:56:05;25.17;;;19.33;;
51594;SDS011;37677;53.254;6.594;2022-10-31T17:58:36;23.25;;;18.48;;
51594;SDS011;37677;53.254;6.594;2022-10-31T18:01:09;28.75;;;18.90;;
51594;SDS011;37677;53.254;6.594;2022-10-31T18:03:36;22.40;;;18.65;;
51594;SDS011;37677;53.254;6.594;2022-10-31T18:06:02;27.17;;;21.63;;
51594;SDS011;37677;53.254;6.594;2022-10-31T18:08:30;28.10;;;19.90;;
51594;SDS011;37677;53.254;6.594;2022-10-31T18:11:23;25.42;;;20.33;;
51594;SDS011;37677;53.254;6.594;2022-10-31T18:13:53;27.90;;;21.35;;
51594;SDS011;37677;53.254;6.594;2022-10-31T18:16:20;30.42;;;22.15;;
51594;SDS011;37677;53.254;6.594;2022-10-31T18:18:55;31.63;;;21.98;;
51594;SDS011;37677;53.254;6.594;2022-10-31T18:21:26;25.67;;;20.83;;
51594;SDS011;37677;53.254;6.594;2022-10-31T18:23:53;28.65;;;21.83;;
51594;SDS011;37677;53.254;6.594;2022-10-31T18:26:20;31.15;;;21.75;;
51594;SDS011;37677;53.254;6.594;2022-10-31T18:28:47;29.88;;;21.45;;
51594;SDS011;37677;53.254;6.594;2022-10-31T18:31:13;30.50;;;21.95;;
51594;SDS011;37677;53.254;6.594;2022-10-31T18:33:38;31.80;;;23.00;;
51594;SDS011;37677;53.254;6.594;2022-10-31T18:36:07;27.20;;;21.80;;
51594;SDS011;37677;53.254;6.594;2022-10-31T18:38:36;28.05;;;22.60;;
51594;SDS011;37677;53.254;6.594;2022-10-31T18:41:06;36.70;;;22.98;;
51594;SDS011;37677;53.254;6.594;2022-10-31T18:43:32;29.95;;;23.05;;
51594;SDS011;37677;53.254;6.594;2022-10-31T18:46:02;32.97;;;22.60;;
51594;SDS011;37677;53.254;6.594;2022-10-31T18:48:29;29.48;;;23.50;;
51594;SDS011;37677;53.254;6.594;2022-10-31T18:50:56;29.45;;;23.27;;
51594;SDS011;37677;53.254;6.594;2022-10-31T18:53:26;36.45;;;24.65;;
51594;SDS011;37677;53.254;6.594;2022-10-31T18:55:51;31.90;;;24.75;;
51594;SDS011;37677;53.254;6.594;2022-10-31T18:58:17;32.08;;;24.55;;
51594;SDS011;37677;53.254;6.594;2022-10-31T19:00:43;34.35;;;25.30;;
51594;SDS011;37677;53.254;6.594;2022-10-31T19:03:10;33.20;;;26.08;;
51594;SDS011;37677;53.254;6.594;2022-10-31T19:05:36;33.40;;;26.30;;
51594;SDS011;37677;53.254;6.594;2022-10-31T19:08:02;38.95;;;27.95;;
51594;SDS011;37677;53.254;6.594;2022-10-31T19:10:29;33.60;;;26.55;;
51594;SDS011;37677;53.254;6.594;2022-10-31T19:12:54;36.25;;;28.85;;
51594;SDS011;37677;53.254;6.594;2022-10-31T19:15:20;39.13;;;30.20;;
51594;SDS011;37677;53.254;6.594;2022-10-31T19:17:46;39.85;;;30.33;;
51594;SDS011;37677;53.254;6.594;2022-10-31T19:20:12;42.03;;;30.02;;
51594;SDS011;37677;53.254;6.594;2022-10-31T19:22:38;37.58;;;30.27;;
51594;SDS011;37677;53.254;6.594;2022-10-31T19:25:04;35.95;;;30.30;;
51594;SDS011;37677;53.254;6.594;2022-10-31T19:27:30;46.40;;;33.20;;
51594;SDS011;37677;53.254;6.594;2022-10-31T19:29:55;46.33;;;33.08;;
51594;SDS011;37677;53.254;6.594;2022-10-31T19:32:21;42.00;;;32.85;;
51594;SDS011;37677;53.254;6.594;2022-10-31T19:34:47;42.10;;;32.25;;
51594;SDS011;37677;53.254;6.594;2022-10-31T19:37:12;46.08;;;34.50;;
51594;SDS011;37677;53.254;6.594;2022-10-31T19:39:39;45.08;;;33.47;;
51594;SDS011;37677;53.254;6.594;2022-10-31T19:42:05;49.60;;;36.22;;
51594;SDS011;37677;53.254;6.594;2022-10-31T19:44:31;47.47;;;36.47;;
51594;SDS011;37677;53.254;6.594;2022-10-31T19:46:57;51.08;;;35.97;;
51594;SDS011;37677;53.254;6.594;2022-10-31T19:49:23;51.58;;;35.78;;
51594;SDS011;37677;53.254;6.594;2022-10-31T19:51:49;51.40;;;36.58;;
51594;SDS011;37677;53.254;6.594;2022-10-31T19:54:15;54.05;;;36.88;;
51594;SDS011;37677;53.254;6.594;2022-10-31T19:56:41;54.80;;;38.50;;
51594;SDS011;37677;53.254;6.594;2022-10-31T19:59:07;53.53;;;40.65;;
51594;SDS011;37677;53.254;6.594;2022-10-31T20:01:33;52.50;;;39.17;;
51594;SDS011;37677;53.254;6.594;2022-10-31T20:03:58;50.25;;;37.70;;
51594;SDS011;37677;53.254;6.594;2022-10-31T20:08:55;51.75;;;38.58;;
51594;SDS011;37677;53.254;6.594;2022-10-31T20:11:21;56.83;;;40.75;;
51594;SDS011;37677;53.254;6.594;2022-10-31T20:13:49;53.67;;;38.83;;
51594;SDS011;37677;53.254;6.594;2022-10-31T20:16:15;55.40;;;41.60;;
51594;SDS011;37677;53.254;6.594;2022-10-31T20:18:41;57.55;;;38.88;;
51594;SDS011;37677;53.254;6.594;2022-10-31T20:21:27;55.88;;;41.13;;
51594;SDS011;37677;53.254;6.594;2022-10-31T20:23:58;64.35;;;41.85;;
51594;SDS011;37677;53.254;6.594;2022-10-31T20:26:26;61.00;;;43.22;;
51594;SDS011;37677;53.254;6.594;2022-10-31T20:28:56;61.53;;;43.03;;
51594;SDS011;37677;53.254;6.594;2022-10-31T20:31:25;60.88;;;42.70;;
51594;SDS011;37677;53.254;6.594;2022-10-31T20:33:52;59.30;;;42.17;;
51594;SDS011;37677;53.254;6.594;2022-10-31T20:36:19;61.42;;;43.58;;
51594;SDS011;37677;53.254;6.594;2022-10-31T20:38:48;60.90;;;42.20;;
51594;SDS011;37677;53.254;6.594;2022-10-31T20:41:15;60.97;;;41.95;;
51594;SDS011;37677;53.254;6.594;2022-10-31T20:43:42;68.95;;;45.72;;
51594;SDS011;37677;53.254;6.594;2022-10-31T20:46:12;64.97;;;44.20;;
51594;SDS011;37677;53.254;6.594;2022-10-31T20:48:40;62.97;;;43.55;;
51594;SDS011;37677;53.254;6.594;2022-10-31T20:51:09;65.43;;;44.38;;
51594;SDS011;37677;53.254;6.594;2022-10-31T20:53:43;67.10;;;44.05;;
51594;SDS011;37677;53.254;6.594;2022-10-31T20:56:10;66.22;;;44.53;;
51594;SDS011;37677;53.254;6.594;2022-10-31T20:58:38;64.25;;;43.80;;
51594;SDS011;37677;53.254;6.594;2022-10-31T21:01:15;60.75;;;40.92;;
51594;SDS011;37677;53.254;6.594;2022-10-31T21:03:41;59.28;;;43.08;;
51594;SDS011;37677;53.254;6.594;2022-10-31T21:06:07;61.72;;;43.20;;
51594;SDS011;37677;53.254;6.594;2022-10-31T21:08:34;63.60;;;42.13;;
51594;SDS011;37677;53.254;6.594;2022-10-31T21:11:03;63.65;;;42.78;;
51594;SDS011;37677;53.254;6.594;2022-10-31T21:13:34;60.67;;;44.10;;
51594;SDS011;37677;53.254;6.594;2022-10-31T21:16:02;62.83;;;42.70;;
51594;SDS011;37677;53.254;6.594;2022-10-31T21:18:31;66.70;;;41.38;;
51594;SDS011;37677;53.254;6.594;2022-10-31T21:20:58;59.60;;;41.33;;
51594;SDS011;37677;53.254;6.594;2022-10-31T21:23:24;60.05;;;40.85;;
51594;SDS011;37677;53.254;6.594;2022-10-31T21:25:50;62.15;;;42.17;;
51594;SDS011;37677;53.254;6.594;2022-10-31T21:28:16;66.22;;;43.70;;
51594;SDS011;37677;53.254;6.594;2022-10-31T21:30:43;57.55;;;41.33;;
51594;SDS011;37677;53.254;6.594;2022-10-31T21:33:10;58.05;;;40.10;;
51594;SDS011;37677;53.254;6.594;2022-10-31T21:35:36;62.25;;;40.92;;
51594;SDS011;37677;53.254;6.594;2022-10-31T21:38:02;64.68;;;39.75;;
51594;SDS011;37677;53.254;6.594;2022-10-31T21:40:28;57.95;;;40.22;;
51594;SDS011;37677;53.254;6.594;2022-10-31T21:42:56;60.85;;;40.70;;
51594;SDS011;37677;53.254;6.594;2022-10-31T21:45:22;62.63;;;40.08;;
51594;SDS011;37677;53.254;6.594;2022-10-31T21:47:48;61.70;;;38.90;;
51594;SDS011;37677;53.254;6.594;2022-10-31T21:50:14;56.42;;;37.70;;
51594;SDS011;37677;53.254;6.594;2022-10-31T21:52:41;56.22;;;36.90;;
51594;SDS011;37677;53.254;6.594;2022-10-31T21:55:07;52.60;;;37.17;;
51594;SDS011;37677;53.254;6.594;2022-10-31T21:57:33;59.92;;;37.25;;
51594;SDS011;37677;53.254;6.594;2022-10-31T22:00:00;56.97;;;37.00;;
51594;SDS011;37677;53.254;6.594;2022-10-31T22:02:28;53.17;;;36.10;;
51594;SDS011;37677;53.254;6.594;2022-10-31T22:04:54;51.38;;;34.17;;
51594;SDS011;37677;53.254;6.594;2022-10-31T22:07:19;47.92;;;32.38;;
51594;SDS011;37677;53.254;6.594;2022-10-31T22:09:45;48.70;;;32.90;;
51594;SDS011;37677;53.254;6.594;2022-10-31T22:12:12;43.90;;;30.20;;
51594;SDS011;37677;53.254;6.594;2022-10-31T22:14:38;40.67;;;27.92;;
51594;SDS011;37677;53.254;6.594;2022-10-31T22:17:04;41.17;;;27.90;;
51594;SDS011;37677;53.254;6.594;2022-10-31T22:19:30;39.55;;;27.05;;
51594;SDS011;37677;53.254;6.594;2022-10-31T22:21:56;38.70;;;25.90;;
51594;SDS011;37677;53.254;6.594;2022-10-31T22:24:21;35.65;;;24.27;;
51594;SDS011;37677;53.254;6.594;2022-10-31T22:26:47;35.08;;;23.08;;
51594;SDS011;37677;53.254;6.594;2022-10-31T22:29:14;36.65;;;23.73;;
51594;SDS011;37677;53.254;6.594;2022-10-31T22:31:42;34.25;;;23.55;;
51594;SDS011;37677;53.254;6.594;2022-10-31T22:34:09;32.72;;;22.02;;
51594;SDS011;37677;53.254;6.594;2022-10-31T22:36:35;29.95;;;21.10;;
51594;SDS011;37677;53.254;6.594;2022-10-31T22:39:02;31.95;;;20.85;;
51594;SDS011;37677;53.254;6.594;2022-10-31T22:41:29;33.65;;;21.15;;
51594;SDS011;37677;53.254;6.594;2022-10-31T22:43:56;33.30;;;20.88;;
51594;SDS011;37677;53.254;6.594;2022-10-31T22:46:24;31.52;;;20.67;;
51594;SDS011;37677;53.254;6.594;2022-10-31T22:48:54;33.38;;;20.00;;
51594;SDS011;37677;53.254;6.594;2022-10-31T22:51:25;28.13;;;19.60;;
51594;SDS011;37677;53.254;6.594;2022-10-31T22:53:52;33.17;;;19.85;;
51594;SDS011;37677;53.254;6.594;2022-10-31T22:56:22;28.35;;;18.50;;
51594;SDS011;37677;53.254;6.594;2022-10-31T22:58:50;30.13;;;20.45;;
51594;SDS011;37677;53.254;6.594;2022-10-31T23:01:17;30.20;;;18.85;;
51594;SDS011;37677;53.254;6.594;2022-10-31T23:03:44;35.88;;;19.60;;
51594;SDS011;37677;53.254;6.594;2022-10-31T23:06:12;27.65;;;18.90;;
51594;SDS011;37677;53.254;6.594;2022-10-31T23:08:39;25.83;;;18.10;;
51594;SDS011;37677;53.254;6.594;2022-10-31T23:11:20;25.45;;;18.05;;
51594;SDS011;37677;53.254;6.594;2022-10-31T23:14:02;30.63;;;17.50;;
51594;SDS011;37677;53.254;6.594;2022-10-31T23:16:45;28.60;;;18.70;;
51594;SDS011;37677;53.254;6.594;2022-10-31T23:19:15;23.80;;;16.40;;
51594;SDS011;37677;53.254;6.594;2022-10-31T23:21:43;24.15;;;16.98;;
51594;SDS011;37677;53.254;6.594;2022-10-31T23:24:36;25.48;;;16.25;;
51594;SDS011;37677;53.254;6.594;2022-10-31T23:27:08;27.05;;;17.02;;
51594;SDS011;37677;53.254;6.594;2022-10-31T23:29:42;28.17;;;16.42;;
51594;SDS011;37677;53.254;6.594;2022-10-31T23:32:21;29.77;;;15.77;;
51594;SDS011;37677;53.254;6.594;2022-10-31T23:34:48;24.23;;;15.77;;
51594;SDS011;37677;53.254;6.594;2022-10-31T23:37:16;26.25;;;14.75;;
51594;SDS011;37677;53.254;6.594;2022-10-31T23:39:42;25.30;;;15.82;;
51594;SDS011;37677;53.254;6.594;2022-10-31T23:42:08;22.13;;;15.10;;
51594;SDS011;37677;53.254;6.594;2022-10-31T23:44:34;22.73;;;15.25;;
51594;SDS011;37677;53.254;6.594;2022-10-31T23:47:00;19.42;;;14.90;;
51594;SDS011;37677;53.254;6.594;2022-10-31T23:49:26;25.48;;;15.38;;
51594;SDS011;37677;53.254;6.594;2022-10-31T23:51:53;24.75;;;14.68;;
51594;SDS011;37677;53.254;6.594;2022-10-31T23:54:20;29.40;;;15.68;;
51594;SDS011;37677;53.254;6.594;2022-10-31T23:56:46;24.60;;;15.57;;
51594;SDS011;37677;53.254;6.594;2022-10-31T23:59:12;24.35;;;15.02;;
